Time;durP1;ratioP1;P1;durP2;ratioP2;P2;SDS_P1;SDS_P2;PMS_P1;PMS_P2;Temp;Humidity;BMP_temperature;BMP_pressure;BME280_temperature;BME280_humidity;BME280_pressure;Samples;Min_cycle;Max_cycle;Signal;HPM_P1;HPM_P2
2021/01/21 00:00:56;;;;;;;4.63;1.50;;;7.50;74.70;;;;;;5005274;28;20025;-65
2021/01/21 00:03:22;;;;;;;2.22;1.27;;;7.50;74.70;;;;;;5005802;28;20434;-66
2021/01/21 00:05:47;;;;;;;3.53;1.40;;;7.70;74.00;;;;;;5004412;28;20108;-66
2021/01/21 00:08:13;;;;;;;3.95;1.52;;;7.80;73.90;;;;;;5007767;28;20424;-65
2021/01/21 00:10:38;;;;;;;2.58;1.30;;;7.70;74.20;;;;;;5004750;28;20021;-66
2021/01/21 00:13:04;;;;;;;6.35;1.60;;;7.70;74.30;;;;;;5004608;28;20022;-66
2021/01/21 00:15:29;;;;;;;4.28;1.40;;;7.70;74.70;;;;;;5004033;28;20170;-66
2021/01/21 00:17:55;;;;;;;4.88;1.45;;;7.70;74.90;;;;;;5004662;28;20392;-65
2021/01/21 00:20:21;;;;;;;5.60;1.80;;;7.80;74.00;;;;;;5003003;28;20038;-66
2021/01/21 00:22:46;;;;;;;3.60;1.33;;;7.90;74.20;;;;;;5003528;28;20030;-65
2021/01/21 00:25:12;;;;;;;4.63;1.33;;;7.80;74.70;;;;;;5004025;28;20049;-66
2021/01/21 00:27:37;;;;;;;3.08;1.20;;;7.90;74.60;;;;;;5004960;28;20071;-65
2021/01/21 00:30:07;;;;;;;4.03;1.30;;;7.90;74.40;;;;;;5004562;28;20490;-66
2021/01/21 00:32:33;;;;;;;7.20;1.30;;;7.90;74.40;;;;;;5005242;28;20131;-66
2021/01/21 00:34:58;;;;;;;3.05;1.33;;;7.80;74.90;;;;;;5002956;28;20159;-66
2021/01/21 00:37:24;;;;;;;2.90;1.58;;;7.90;74.60;;;;;;5003953;28;20502;-66
2021/01/21 00:39:49;;;;;;;2.55;1.42;;;8.10;73.90;;;;;;5003657;28;20030;-65
2021/01/21 00:42:15;;;;;;;2.88;1.17;;;7.90;74.70;;;;;;5005435;28;20111;-65
2021/01/21 00:44:40;;;;;;;5.43;1.45;;;8.00;74.60;;;;;;5004576;28;20570;-66
2021/01/21 00:47:06;;;;;;;8.00;1.48;;;7.90;74.70;;;;;;5004676;28;20124;-65
2021/01/21 00:52:18;;;;;;;4.65;1.48;;;7.90;74.90;;;;;;5047263;28;20064;-67
2021/01/21 00:54:43;;;;;;;4.90;1.08;;;7.90;74.60;;;;;;5057546;28;20032;-67
2021/01/21 00:57:09;;;;;;;4.60;1.42;;;7.80;75.30;;;;;;5068303;28;20021;-66
2021/01/21 00:59:35;;;;;;;5.97;1.40;;;7.80;75.40;;;;;;5053774;28;20384;-66
2021/01/21 01:02:00;;;;;;;4.28;1.33;;;7.80;75.20;;;;;;5064911;28;20037;-67
2021/01/21 01:04:26;;;;;;;3.65;1.48;;;7.80;75.50;;;;;;5067508;28;20489;-67
2021/01/21 01:06:52;;;;;;;4.75;1.33;;;7.80;75.60;;;;;;5069529;28;20060;-67
2021/01/21 01:09:18;;;;;;;1.55;1.10;;;7.80;75.50;;;;;;5059391;28;20066;-67
2021/01/21 01:11:44;;;;;;;2.80;1.13;;;7.80;75.50;;;;;;5049131;28;20176;-66
2021/01/21 01:14:10;;;;;;;4.70;1.60;;;7.80;75.60;;;;;;5061837;28;20149;-67
2021/01/21 01:16:35;;;;;;;5.35;1.50;;;7.90;75.10;;;;;;5061331;28;20447;-67
2021/01/21 01:19:01;;;;;;;5.00;1.38;;;7.80;75.30;;;;;;5050704;28;20063;-67
2021/01/21 01:21:26;;;;;;;2.83;1.10;;;7.80;75.60;;;;;;5056116;28;20052;-67
2021/01/21 01:23:52;;;;;;;3.20;1.23;;;7.90;75.30;;;;;;5071666;28;20040;-67
2021/01/21 01:26:20;;;;;;;5.45;1.33;;;7.90;74.90;;;;;;5072661;28;20021;-67
2021/01/21 01:28:46;;;;;;;5.38;1.20;;;7.80;75.50;;;;;;5070836;28;20056;-67
2021/01/21 01:31:12;;;;;;;2.47;1.48;;;7.90;75.30;;;;;;5061458;28;20033;-67
2021/01/21 01:33:37;;;;;;;3.42;1.30;;;7.90;75.50;;;;;;5071575;28;20382;-67
2021/01/21 01:36:04;;;;;;;2.50;1.42;;;7.90;75.00;;;;;;5070764;28;20016;-67
2021/01/21 01:38:29;;;;;;;5.32;1.40;;;8.00;75.00;;;;;;5063503;28;20260;-68
2021/01/21 01:40:55;;;;;;;3.78;1.40;;;8.00;75.30;;;;;;5072338;28;20111;-67
2021/01/21 01:43:20;;;;;;;2.15;1.10;;;8.00;75.20;;;;;;5061627;28;20028;-67
2021/01/21 01:45:46;;;;;;;4.25;1.48;;;8.10;74.50;;;;;;5063342;28;20112;-66
2021/01/21 01:48:12;;;;;;;3.10;1.48;;;8.20;74.30;;;;;;5069515;28;20044;-66
2021/01/21 01:50:38;;;;;;;5.05;1.30;;;8.30;73.90;;;;;;5065444;28;20280;-67
2021/01/21 01:53:05;;;;;;;3.17;1.05;;;8.40;73.60;;;;;;5055314;28;20574;-67
2021/01/21 01:55:32;;;;;;;2.97;1.42;;;8.50;73.30;;;;;;5071418;28;20028;-67
2021/01/21 01:57:58;;;;;;;3.85;1.35;;;8.50;73.40;;;;;;5069618;28;20393;-67
2021/01/21 02:00:24;;;;;;;3.72;1.30;;;8.60;72.90;;;;;;5060514;28;20055;-67
2021/01/21 02:02:51;;;;;;;3.95;1.63;;;8.50;73.30;;;;;;5070701;28;20028;-67
2021/01/21 02:05:17;;;;;;;2.45;1.30;;;8.60;72.90;;;;;;5065080;28;20488;-66
2021/01/21 02:07:43;;;;;;;3.67;1.27;;;8.70;72.70;;;;;;5071434;28;20107;-67
2021/01/21 02:10:11;;;;;;;5.10;1.40;;;8.60;73.10;;;;;;5060827;28;20025;-67
2021/01/21 02:12:59;;;;;;;3.65;1.60;;;8.80;72.50;;;;;;5065133;28;20032;-66
2021/01/21 02:15:53;;;;;;;2.83;1.25;;;8.70;72.50;;;;;;5051935;28;20412;-67
2021/01/21 02:18:25;;;;;;;4.70;1.60;;;8.80;72.30;;;;;;5066441;28;20032;-67
2021/01/21 02:21:06;;;;;;;4.43;1.20;;;8.80;72.60;;;;;;5071213;28;20473;-67
2021/01/21 02:23:56;;;;;;;4.85;1.33;;;8.90;71.90;;;;;;5061350;28;20028;-67
2021/01/21 02:26:26;;;;;;;3.92;1.33;;;9.10;70.90;;;;;;5053160;28;20052;-66
2021/01/21 02:29:02;;;;;;;2.63;1.30;;;9.10;71.10;;;;;;5059157;28;20028;-67
2021/01/21 02:31:46;;;;;;;4.35;1.77;;;9.00;71.70;;;;;;5070979;28;20017;-67
2021/01/21 02:34:41;;;;;;;5.53;1.45;;;9.00;71.60;;;;;;5068341;28;20489;-67
2021/01/21 02:37:14;;;;;;;5.25;1.30;;;9.20;70.60;;;;;;5064624;28;20028;-66
2021/01/21 02:39:49;;;;;;;6.18;1.45;;;9.20;70.70;;;;;;5051456;28;20044;-67
2021/01/21 02:42:16;;;;;;;5.22;1.38;;;9.10;71.10;;;;;;5070586;28;20078;-66
2021/01/21 02:44:43;;;;;;;2.72;1.27;;;9.00;71.20;;;;;;5055843;28;20041;-67
2021/01/21 02:47:09;;;;;;;7.03;1.63;;;9.10;71.10;;;;;;5064897;28;20028;-67
2021/01/21 02:49:36;;;;;;;4.63;1.40;;;9.00;71.50;;;;;;5059130;28;20036;-67
2021/01/21 02:52:14;;;;;;;2.85;1.30;;;9.10;71.40;;;;;;5065702;28;20469;-67
2021/01/21 02:55:08;;;;;;;3.55;1.35;;;9.00;71.80;;;;;;5069813;28;20036;-67
2021/01/21 02:57:57;;;;;;;5.38;1.30;;;9.10;71.10;;;;;;5070218;28;20047;-67
2021/01/21 03:00:23;;;;;;;3.85;1.38;;;9.20;70.60;;;;;;5066722;28;20470;-67
2021/01/21 03:02:54;;;;;;;4.03;1.67;;;9.20;70.90;;;;;;5061683;28;20047;-66
2021/01/21 03:05:21;;;;;;;4.18;1.17;;;9.10;71.20;;;;;;5051816;28;20029;-67
2021/01/21 03:07:48;;;;;;;4.03;1.30;;;9.10;71.20;;;;;;5069373;28;20042;-67
2021/01/21 03:10:19;;;;;;;4.00;1.25;;;9.10;70.80;;;;;;5058230;28;20025;-66
2021/01/21 03:12:51;;;;;;;3.47;1.20;;;9.10;71.10;;;;;;5065708;28;20028;-67
2021/01/21 03:15:17;;;;;;;2.85;1.10;;;9.10;70.90;;;;;;5067536;28;20500;-66
2021/01/21 03:17:42;;;;;;;5.25;1.30;;;9.10;71.20;;;;;;5054971;28;20041;-67
2021/01/21 03:20:08;;;;;;;4.00;1.40;;;9.20;70.50;;;;;;5066386;28;20447;-67
2021/01/21 03:22:34;;;;;;;4.90;1.48;;;9.30;70.20;;;;;;5066032;28;20056;-66
2021/01/21 03:24:59;;;;;;;2.85;1.20;;;9.30;70.20;;;;;;5061197;28;20426;-67
2021/01/21 03:27:25;;;;;;;3.60;1.33;;;9.20;70.90;;;;;;5070320;28;20055;-67
2021/01/21 03:29:50;;;;;;;3.67;1.20;;;9.20;70.50;;;;;;5066066;28;20094;-67
2021/01/21 03:32:16;;;;;;;4.53;1.17;;;9.10;71.20;;;;;;5070167;28;20021;-66
2021/01/21 03:34:42;;;;;;;5.32;1.35;;;9.10;70.70;;;;;;5069604;28;20032;-66
2021/01/21 03:37:07;;;;;;;3.67;1.35;;;9.10;70.70;;;;;;5062065;28;20035;-67
2021/01/21 03:39:33;;;;;;;3.97;1.27;;;9.10;70.90;;;;;;5059904;28;20374;-67
2021/01/21 03:41:58;;;;;;;6.07;1.23;;;9.20;70.30;;;;;;5069341;28;20040;-67
2021/01/21 03:44:24;;;;;;;3.45;1.13;;;9.10;70.80;;;;;;5067951;28;20103;-67
2021/01/21 03:46:49;;;;;;;4.07;1.10;;;9.30;69.90;;;;;;5065561;28;20036;-67
2021/01/21 03:49:15;;;;;;;2.70;0.98;;;9.30;70.10;;;;;;5068528;28;20617;-67
2021/01/21 03:51:40;;;;;;;4.38;1.05;;;9.30;69.90;;;;;;5064416;28;20021;-67
2021/01/21 03:54:06;;;;;;;3.10;1.00;;;9.20;70.00;;;;;;5063960;28;20032;-66
2021/01/21 03:56:32;;;;;;;2.90;1.20;;;9.10;70.20;;;;;;5057846;28;20488;-66
2021/01/21 03:58:57;;;;;;;7.20;1.50;;;9.10;70.00;;;;;;5063800;28;20028;-67
2021/01/21 04:01:23;;;;;;;2.90;1.33;;;9.00;70.80;;;;;;5051179;28;20028;-67
2021/01/21 04:03:51;;;;;;;4.20;1.30;;;8.90;71.10;;;;;;5057218;28;20043;-66
2021/01/21 04:06:17;;;;;;;4.82;1.45;;;8.90;70.90;;;;;;5056659;28;20024;-66
2021/01/21 04:08:43;;;;;;;2.63;0.98;;;8.90;70.90;;;;;;5068333;28;20028;-66
2021/01/21 04:11:08;;;;;;;4.40;1.25;;;8.80;71.10;;;;;;5054348;28;20516;-67
2021/01/21 04:13:34;;;;;;;7.00;1.45;;;9.00;70.30;;;;;;5067663;28;20409;-66
2021/01/21 04:15:59;;;;;;;3.53;1.23;;;9.00;70.20;;;;;;5061076;28;20029;-67
2021/01/21 04:18:25;;;;;;;3.97;1.15;;;8.80;70.70;;;;;;5067809;28;20031;-66
2021/01/21 04:20:50;;;;;;;2.03;0.77;;;9.00;70.10;;;;;;5068797;28;20565;-66
2021/01/21 04:23:16;;;;;;;2.95;1.20;;;8.90;70.40;;;;;;5063074;28;20021;-66
2021/01/21 04:25:41;;;;;;;3.97;1.20;;;8.80;70.90;;;;;;5062649;28;20041;-67
2021/01/21 04:28:07;;;;;;;3.50;1.17;;;8.80;70.80;;;;;;5053119;28;20067;-66
2021/01/21 04:30:33;;;;;;;4.38;1.30;;;8.70;71.10;;;;;;5066956;28;20307;-66
2021/01/21 04:32:58;;;;;;;4.25;1.17;;;8.80;70.70;;;;;;5067983;28;20806;-67
2021/01/21 04:35:24;;;;;;;3.20;1.33;;;8.70;70.90;;;;;;5067326;28;20025;-66
2021/01/21 04:37:49;;;;;;;6.63;1.23;;;8.80;70.50;;;;;;5068898;28;20147;-66
2021/01/21 04:40:15;;;;;;;2.40;1.08;;;8.80;70.70;;;;;;5067150;28;20099;-66
2021/01/21 04:42:41;;;;;;;1.88;1.08;;;8.60;71.10;;;;;;5053504;28;20037;-66
2021/01/21 04:45:08;;;;;;;3.30;1.10;;;8.60;71.00;;;;;;5061126;28;20024;-67
2021/01/21 04:47:36;;;;;;;5.20;1.25;;;8.50;71.30;;;;;;5047727;28;20038;-67
2021/01/21 04:50:02;;;;;;;6.47;1.20;;;8.50;71.60;;;;;;5067664;28;20017;-66
2021/01/21 04:52:33;;;;;;;3.38;1.10;;;8.50;71.80;;;;;;5069056;28;20036;-66
2021/01/21 04:55:04;;;;;;;3.42;1.13;;;8.50;71.50;;;;;;5061149;28;20028;-67
2021/01/21 04:58:10;;;;;;;3.70;1.27;;;8.30;72.20;;;;;;5072696;28;20028;-66
2021/01/21 05:00:38;;;;;;;3.35;1.20;;;8.10;73.00;;;;;;5061134;28;20025;-66
2021/01/21 05:03:04;;;;;;;3.33;1.13;;;8.20;72.70;;;;;;5070716;28;20032;-67
2021/01/21 05:05:29;;;;;;;4.40;1.20;;;8.30;72.40;;;;;;5072306;28;20032;-67
2021/01/21 05:07:55;;;;;;;3.17;1.10;;;8.30;72.50;;;;;;5071514;28;20055;-66
2021/01/21 05:10:22;;;;;;;4.35;1.00;;;8.30;72.50;;;;;;5066230;28;20490;-66
2021/01/21 05:12:48;;;;;;;3.35;1.40;;;8.10;72.90;;;;;;5071607;28;20043;-66
2021/01/21 05:15:13;;;;;;;5.95;1.35;;;8.40;72.10;;;;;;5070832;28;20111;-66
2021/01/21 05:17:39;;;;;;;5.10;1.20;;;8.40;71.80;;;;;;5057632;28;20036;-67
2021/01/21 05:20:06;;;;;;;3.80;1.23;;;8.40;71.80;;;;;;5072022;28;20504;-66
2021/01/21 05:22:34;;;;;;;3.85;1.10;;;8.40;71.40;;;;;;5061330;28;20040;-66
2021/01/21 05:25:01;;;;;;;5.35;1.55;;;8.40;71.80;;;;;;5067019;28;20111;-66
2021/01/21 05:27:28;;;;;;;2.63;1.00;;;8.40;71.60;;;;;;5072451;28;20059;-66
2021/01/21 05:29:53;;;;;;;2.22;1.20;;;8.40;71.80;;;;;;5069891;28;20081;-66
2021/01/21 05:32:20;;;;;;;2.35;1.23;;;8.30;72.30;;;;;;5067195;28;20033;-65
2021/01/21 05:34:47;;;;;;;2.60;1.20;;;8.40;72.20;;;;;;5071749;28;20028;-66
2021/01/21 05:37:16;;;;;;;2.30;1.00;;;8.30;72.20;;;;;;5069105;28;20037;-66
2021/01/21 05:39:43;;;;;;;2.17;1.23;;;8.60;70.80;;;;;;5061091;28;20031;-66
2021/01/21 05:42:10;;;;;;;3.88;1.10;;;8.60;71.00;;;;;;5061034;28;20043;-67
2021/01/21 05:44:36;;;;;;;1.92;0.98;;;8.60;71.30;;;;;;5058448;28;20021;-66
2021/01/21 05:47:06;;;;;;;3.38;1.08;;;8.50;71.70;;;;;;5060055;28;20388;-66
2021/01/21 05:49:32;;;;;;;5.80;1.25;;;8.60;71.10;;;;;;5057444;28;20028;-66
2021/01/21 05:51:59;;;;;;;2.13;1.00;;;8.60;71.10;;;;;;5066593;28;20532;-66
2021/01/21 05:54:27;;;;;;;3.13;1.20;;;8.80;70.30;;;;;;5070653;28;20513;-66
2021/01/21 05:57:00;;;;;;;3.05;1.00;;;8.90;69.90;;;;;;5065091;28;20086;-66
2021/01/21 05:59:28;;;;;;;5.70;1.15;;;9.10;69.10;;;;;;5068464;28;20497;-66
2021/01/21 06:01:54;;;;;;;2.25;0.98;;;9.10;69.00;;;;;;5051849;28;20028;-66
2021/01/21 06:04:25;;;;;;;1.50;0.95;;;9.20;68.40;;;;;;5052876;28;20539;-65
2021/01/21 06:06:52;;;;;;;;;;;9.30;68.20;;;;;;5052621;28;20036;-65
2021/01/21 06:09:28;;;;;;;6.20;0.90;;;9.40;67.80;;;;;;5055174;28;19912;-65
2021/01/21 06:12:04;;;;;;;3.10;1.33;;;9.50;67.80;;;;;;5051714;28;20036;-66
2021/01/21 06:14:30;;;;;;;3.10;1.00;;;9.40;67.90;;;;;;5051438;28;20488;-66
2021/01/21 06:16:57;;;;;;;4.68;1.00;;;9.50;67.70;;;;;;5051314;28;20405;-67
2021/01/21 06:19:23;;;;;;;4.75;0.90;;;9.60;67.40;;;;;;5053087;28;20040;-66
2021/01/21 06:22:07;;;;;;;4.18;0.85;;;9.50;67.60;;;;;;5051324;28;20124;-66
2021/01/21 06:24:44;;;;;;;2.05;0.90;;;9.60;67.10;;;;;;5048886;28;20029;-66
2021/01/21 06:27:10;;;;;;;3.75;1.17;;;9.60;67.30;;;;;;5050769;28;20043;-66
2021/01/21 06:29:37;;;;;;;3.47;1.23;;;9.60;67.20;;;;;;5051500;28;20052;-66
2021/01/21 06:32:04;;;;;;;3.95;1.10;;;9.70;66.80;;;;;;5051747;28;20032;-66
2021/01/21 06:34:32;;;;;;;2.00;1.00;;;9.90;66.40;;;;;;5052975;28;20565;-66
2021/01/21 06:37:02;;;;;;;4.28;1.27;;;9.80;66.50;;;;;;5056969;28;20112;-67
2021/01/21 06:39:52;;;;;;;3.67;1.40;;;9.70;67.00;;;;;;5051026;28;20082;-66
2021/01/21 06:42:26;;;;;;;2.33;1.20;;;9.80;67.10;;;;;;5050861;28;20043;-66
2021/01/21 06:44:52;;;;;;;2.92;1.10;;;9.80;67.10;;;;;;5067438;28;20031;-67
2021/01/21 06:47:20;;;;;;;2.05;1.00;;;9.90;66.80;;;;;;5066231;28;20074;-66
2021/01/21 06:49:47;;;;;;;2.72;0.85;;;9.80;67.30;;;;;;5047724;28;20025;-66
2021/01/21 06:52:13;;;;;;;2.92;1.05;;;9.70;67.70;;;;;;5081945;22;20148;-65
2021/01/21 06:54:40;;;;;;;2.85;0.90;;;9.80;67.00;;;;;;5023152;28;20091;-65
2021/01/21 06:57:33;;;;;;;3.85;1.02;;;9.80;67.00;;;;;;5046893;28;20533;-66
2021/01/21 06:59:59;;;;;;;3.63;0.90;;;9.80;66.80;;;;;;5036219;28;20068;-65
2021/01/21 07:02:51;;;;;;;3.95;1.02;;;9.70;67.70;;;;;;5044032;28;20111;-66
2021/01/21 07:05:25;;;;;;;4.70;1.17;;;9.90;67.00;;;;;;5044129;28;20029;-66
2021/01/21 07:07:53;;;;;;;4.63;0.80;;;9.90;67.10;;;;;;5040991;28;20048;-66
2021/01/21 07:10:36;;;;;;;2.65;0.90;;;10.00;67.00;;;;;;5043249;28;20394;-65
2021/01/21 07:13:13;;;;;;;2.50;0.80;;;10.00;66.90;;;;;;5028088;28;20052;-66
2021/01/21 07:15:51;;;;;;;2.65;1.13;;;10.00;67.00;;;;;;5039701;28;20029;-66
2021/01/21 07:18:24;;;;;;;3.50;1.08;;;10.00;67.40;;;;;;5035635;28;20170;-66
2021/01/21 07:20:59;;;;;;;3.63;0.85;;;10.10;66.40;;;;;;5043157;28;20147;-65
2021/01/21 07:23:37;;;;;;;2.22;0.88;;;10.10;66.70;;;;;;5038337;28;20337;-65
2021/01/21 07:26:41;;;;;;;1.77;0.90;;;10.00;67.20;;;;;;5043926;28;20064;-65
2021/01/21 07:29:21;;;;;;;3.58;1.23;;;10.10;66.70;;;;;;5045363;28;20339;-65
2021/01/21 07:31:52;;;;;;;2.25;0.93;;;10.10;66.60;;;;;;5032264;28;20025;-66
2021/01/21 07:34:29;;;;;;;2.17;1.08;;;10.10;67.60;;;;;;5039938;28;20147;-65
2021/01/21 07:37:16;;;;;;;2.25;0.98;;;10.10;67.80;;;;;;5042298;28;20465;-65
2021/01/21 07:39:53;;;;;;;0.57;0.30;;;10.10;69.20;;;;;;5042800;28;20088;-65
2021/01/21 07:42:21;;;;;;;0.70;0.38;;;6.80;84.80;;;;;;5024936;28;20349;-65
2021/01/21 07:45:00;;;;;;;2.88;0.40;;;6.10;88.10;;;;;;5044122;28;20040;-65
2021/01/21 07:47:28;;;;;;;0.85;0.30;;;5.70;89.20;;;;;;5022332;28;20127;-65
2021/01/21 07:50:18;;;;;;;4.75;0.60;;;5.60;90.10;;;;;;5044051;28;20029;-66
2021/01/21 07:52:58;;;;;;;2.35;0.70;;;5.50;90.70;;;;;;5044365;28;20384;-65
2021/01/21 07:55:38;;;;;;;0.77;0.70;;;5.50;91.10;;;;;;5033010;28;20104;-65
2021/01/21 07:58:28;;;;;;;1.38;0.50;;;5.50;90.40;;;;;;5041515;28;20640;-65
2021/01/21 08:01:03;;;;;;;2.10;0.50;;;5.50;90.60;;;;;;5042298;28;20066;-65
2021/01/21 08:03:31;;;;;;;1.88;0.43;;;5.50;90.80;;;;;;5041739;28;20029;-65
2021/01/21 08:06:06;;;;;;;2.50;0.60;;;5.60;89.40;;;;;;5017997;28;20550;-65
2021/01/21 08:08:32;;;;;;;3.67;0.63;;;5.60;90.20;;;;;;5039395;28;20040;-65
2021/01/21 08:11:09;;;;;;;2.83;0.70;;;5.70;89.30;;;;;;5035245;28;20478;-66
2021/01/21 08:13:35;;;;;;;2.53;0.50;;;5.70;89.00;;;;;;5041369;28;20425;-65
2021/01/21 08:16:02;;;;;;;2.08;0.52;;;5.70;89.30;;;;;;5034859;28;20028;-65
2021/01/21 08:18:28;;;;;;;1.08;0.50;;;5.70;89.30;;;;;;5035787;28;20099;-65
2021/01/21 08:20:54;;;;;;;1.30;0.50;;;5.80;88.80;;;;;;5038404;28;20032;-65
2021/01/21 08:23:19;;;;;;;0.80;0.50;;;5.80;89.80;;;;;;5019017;28;20098;-65
2021/01/21 08:25:47;;;;;;;1.35;0.55;;;5.80;89.50;;;;;;5043193;28;20486;-65
2021/01/21 08:28:18;;;;;;;2.05;0.50;;;5.80;89.20;;;;;;5044216;28;20358;-65
2021/01/21 08:30:45;;;;;;;1.17;0.60;;;5.80;90.00;;;;;;5024757;28;20094;-65
2021/01/21 08:33:24;;;;;;;0.93;0.70;;;5.80;89.90;;;;;;5038465;28;20354;-65
2021/01/21 08:35:52;;;;;;;1.00;0.47;;;5.90;89.00;;;;;;5041140;28;20048;-64
2021/01/21 08:38:21;;;;;;;0.90;0.45;;;6.00;88.60;;;;;;5014517;28;20070;-65
2021/01/21 08:40:49;;;;;;;0.98;0.60;;;5.80;90.00;;;;;;5034695;28;20025;-64
2021/01/21 08:43:15;;;;;;;3.15;0.75;;;5.90;89.10;;;;;;5029877;28;20068;-65
2021/01/21 08:45:41;;;;;;;4.88;0.65;;;6.10;87.60;;;;;;5035906;28;20126;-66
2021/01/21 08:48:07;;;;;;;2.75;0.60;;;6.10;87.00;;;;;;5035875;28;20460;-65
2021/01/21 08:50:42;;;;;;;2.58;0.82;;;6.10;86.40;;;;;;5035002;28;20100;-66
2021/01/21 08:53:10;;;;;;;2.75;0.90;;;6.10;86.30;;;;;;5034454;28;20898;-65
2021/01/21 08:55:41;;;;;;;0.90;0.60;;;6.20;84.80;;;;;;5034471;28;20120;-66
2021/01/21 08:58:08;;;;;;;2.45;0.70;;;6.10;86.50;;;;;;5031422;28;20272;-65
2021/01/21 09:00:36;;;;;;;2.25;0.85;;;6.20;85.10;;;;;;5033537;28;20052;-65
2021/01/21 09:03:02;;;;;;;4.95;1.05;;;6.20;85.20;;;;;;5030096;28;20032;-66
2021/01/21 09:05:28;;;;;;;2.85;1.10;;;6.20;85.20;;;;;;5032876;28;20123;-66
2021/01/21 09:08:05;;;;;;;3.45;0.90;;;6.20;85.40;;;;;;5033303;28;20078;-65
2021/01/21 09:10:43;;;;;;;2.13;0.77;;;6.10;86.20;;;;;;5021450;28;20090;-65
2021/01/21 09:13:10;;;;;;;2.47;0.80;;;6.10;85.80;;;;;;5005666;28;20737;-65
2021/01/21 09:15:55;;;;;;;2.13;0.77;;;6.10;85.80;;;;;;5011696;28;20037;-66
2021/01/21 09:18:26;;;;;;;2.47;0.80;;;6.10;86.30;;;;;;5039558;28;20029;-66
2021/01/21 09:21:13;;;;;;;8.32;0.90;;;6.20;85.70;;;;;;5042993;28;20053;-65
2021/01/21 09:23:39;;;;;;;3.33;1.10;;;6.20;85.40;;;;;;5035671;28;20033;-65
2021/01/21 09:26:15;;;;;;;5.22;1.00;;;6.20;85.20;;;;;;5034535;28;20095;-65
2021/01/21 09:28:57;;;;;;;4.43;1.17;;;6.30;85.40;;;;;;5039811;28;20032;-66
2021/01/21 09:31:26;;;;;;;2.88;0.93;;;6.40;84.00;;;;;;5040171;28;20021;-65
2021/01/21 09:33:52;;;;;;;3.38;0.80;;;6.30;85.20;;;;;;5039004;28;20063;-65
2021/01/21 09:36:28;;;;;;;2.38;0.75;;;6.30;85.00;;;;;;5035652;28;20094;-66
2021/01/21 09:38:56;;;;;;;2.33;0.80;;;6.30;84.60;;;;;;5036315;28;20025;-65
2021/01/21 09:41:21;;;;;;;3.63;0.90;;;6.30;84.10;;;;;;5040679;28;20034;-66
2021/01/21 09:43:47;;;;;;;4.15;0.95;;;6.40;84.00;;;;;;5041181;28;20033;-66
2021/01/21 09:46:13;;;;;;;5.07;1.10;;;6.40;83.90;;;;;;5020730;28;20098;-65
2021/01/21 09:48:38;;;;;;;4.75;1.08;;;6.40;84.00;;;;;;5043903;28;20043;-65
2021/01/21 09:51:04;;;;;;;1.98;0.80;;;6.40;83.70;;;;;;5039442;28;20086;-65
2021/01/21 09:53:30;;;;;;;4.57;1.05;;;6.30;84.80;;;;;;5039650;28;20102;-66
2021/01/21 09:55:55;;;;;;;4.30;0.77;;;6.30;84.30;;;;;;5024576;28;20145;-65
2021/01/21 09:58:24;;;;;;;0.55;0.50;;;6.30;84.90;;;;;;5044778;28;20413;-66
2021/01/21 10:00:51;;;;;;;3.55;0.93;;;6.30;83.40;;;;;;5042044;28;20096;-66
2021/01/21 10:03:18;;;;;;;5.80;1.35;;;6.40;83.30;;;;;;5042308;28;20079;-66
2021/01/21 10:05:44;;;;;;;4.15;0.80;;;6.50;82.90;;;;;;5036839;28;20136;-64
2021/01/21 10:08:10;;;;;;;3.03;0.90;;;6.40;83.30;;;;;;5035688;28;20151;-64
2021/01/21 10:10:36;;;;;;;5.00;0.98;;;6.40;82.80;;;;;;5016017;28;20025;-64
2021/01/21 10:13:01;;;;;;;3.40;0.90;;;6.40;82.70;;;;;;5040606;28;20513;-66
2021/01/21 10:15:27;;;;;;;2.05;0.57;;;6.50;83.40;;;;;;5019085;28;20706;-66
2021/01/21 10:17:53;;;;;;;2.40;0.80;;;6.70;82.20;;;;;;5039232;28;20048;-64
2021/01/21 10:20:18;;;;;;;2.13;0.85;;;6.90;80.70;;;;;;5034841;28;20036;-65
2021/01/21 10:22:44;;;;;;;3.60;1.08;;;6.90;81.30;;;;;;5043668;28;20146;-66
2021/01/21 10:25:10;;;;;;;4.18;1.15;;;6.80;80.90;;;;;;5042087;28;20025;-65
2021/01/21 10:27:35;;;;;;;3.97;0.82;;;6.90;80.50;;;;;;5038194;28;20120;-65
2021/01/21 10:30:02;;;;;;;4.88;0.88;;;7.10;79.30;;;;;;5042225;28;20029;-66
2021/01/21 10:32:27;;;;;;;4.13;0.82;;;7.10;80.20;;;;;;5043731;28;20025;-65
2021/01/21 10:34:53;;;;;;;3.55;0.98;;;7.10;79.80;;;;;;5027252;28;20025;-66
2021/01/21 10:37:18;;;;;;;2.92;1.00;;;7.30;79.20;;;;;;5037938;28;20146;-67
2021/01/21 10:39:44;;;;;;;4.80;1.00;;;7.30;78.70;;;;;;5044387;28;20037;-66
2021/01/21 10:42:10;;;;;;;2.15;0.75;;;7.30;78.60;;;;;;5042383;28;20029;-66
2021/01/21 10:44:36;;;;;;;4.07;1.15;;;7.20;78.00;;;;;;5026457;28;20416;-66
2021/01/21 10:47:01;;;;;;;3.88;1.08;;;7.20;78.50;;;;;;5040354;28;20025;-66
2021/01/21 10:49:27;;;;;;;5.05;1.10;;;7.10;78.00;;;;;;5044205;28;20048;-66
2021/01/21 10:51:56;;;;;;;4.55;0.95;;;7.30;77.40;;;;;;5044913;28;20041;-66
2021/01/21 10:54:22;;;;;;;3.58;1.00;;;7.40;78.10;;;;;;5043326;28;20049;-65
2021/01/21 10:56:53;;;;;;;3.15;0.80;;;7.50;76.60;;;;;;5038589;28;20021;-66
2021/01/21 10:59:19;;;;;;;4.80;1.00;;;7.40;77.10;;;;;;5044287;28;20063;-66
2021/01/21 11:01:44;;;;;;;3.58;0.77;;;7.50;76.10;;;;;;5041631;28;20508;-66
2021/01/21 11:04:10;;;;;;;4.85;1.10;;;7.60;75.60;;;;;;5041024;28;20462;-66
2021/01/21 11:06:35;;;;;;;4.53;1.00;;;7.50;75.40;;;;;;5024327;28;20423;-66
2021/01/21 11:09:01;;;;;;;9.30;1.42;;;7.40;75.30;;;;;;5043247;28;20024;-66
2021/01/21 11:11:27;;;;;;;5.97;1.23;;;7.40;75.70;;;;;;5043913;28;20108;-65
2021/01/21 11:13:54;;;;;;;4.18;1.20;;;7.40;74.60;;;;;;5044378;28;20109;-66
2021/01/21 11:16:19;;;;;;;2.42;1.10;;;7.40;74.80;;;;;;5040493;28;20083;-66
2021/01/21 11:18:45;;;;;;;5.88;1.25;;;7.40;74.10;;;;;;5027540;28;20176;-66
2021/01/21 11:21:10;;;;;;;6.38;0.95;;;7.50;74.20;;;;;;5040030;28;20081;-66
2021/01/21 11:23:36;;;;;;;4.95;1.20;;;7.70;74.10;;;;;;5041599;28;20454;-66
2021/01/21 11:26:02;;;;;;;3.58;0.77;;;7.80;73.30;;;;;;5045380;28;20029;-66
2021/01/21 11:28:28;;;;;;;4.78;0.95;;;7.80;73.10;;;;;;5038779;28;20052;-65
2021/01/21 11:30:53;;;;;;;3.63;1.00;;;7.80;72.30;;;;;;5041860;28;20254;-66
2021/01/21 11:33:19;;;;;;;5.50;1.00;;;7.80;71.80;;;;;;5041285;28;20451;-65
2021/01/21 11:35:46;;;;;;;4.15;0.98;;;7.80;73.00;;;;;;5043906;28;20341;-66
2021/01/21 11:38:15;;;;;;;5.45;1.13;;;8.00;71.70;;;;;;5038418;28;20025;-66
2021/01/21 11:40:41;;;;;;;4.25;0.88;;;8.00;70.70;;;;;;5032005;28;20284;-67
2021/01/21 11:43:08;;;;;;;3.22;1.00;;;8.10;69.40;;;;;;5022995;28;20420;-66
2021/01/21 11:45:33;;;;;;;2.38;0.80;;;8.10;69.80;;;;;;5037307;28;20447;-66
2021/01/21 11:47:59;;;;;;;2.78;0.70;;;7.90;70.00;;;;;;5042428;28;20037;-66
2021/01/21 11:50:25;;;;;;;4.47;0.95;;;7.70;70.50;;;;;;5040620;28;20049;-66
2021/01/21 11:52:50;;;;;;;6.70;1.00;;;8.00;69.90;;;;;;5036820;28;20079;-66
2021/01/21 11:55:16;;;;;;;5.10;0.93;;;7.80;70.80;;;;;;5044188;28;20075;-66
2021/01/21 11:57:42;;;;;;;4.57;0.85;;;7.90;70.10;;;;;;5044698;28;20463;-66
2021/01/21 12:00:13;;;;;;;3.42;1.00;;;8.10;68.50;;;;;;5038250;28;20026;-66
2021/01/21 12:02:39;;;;;;;5.70;0.90;;;8.00;68.00;;;;;;5040211;28;20029;-66
2021/01/21 12:05:07;;;;;;;4.47;0.90;;;7.70;69.10;;;;;;5031020;28;20099;-66
2021/01/21 12:07:32;;;;;;;2.70;0.82;;;7.80;68.20;;;;;;5041378;28;20105;-66
2021/01/21 12:09:58;;;;;;;3.13;1.08;;;7.70;69.90;;;;;;5035135;28;20058;-66
2021/01/21 12:12:24;;;;;;;5.05;0.95;;;7.80;69.00;;;;;;5044195;28;20024;-66
2021/01/21 12:14:50;;;;;;;2.83;0.90;;;8.00;68.10;;;;;;5042770;28;20103;-66
2021/01/21 12:17:16;;;;;;;4.65;0.90;;;8.10;67.30;;;;;;5041524;28;20082;-66
2021/01/21 12:19:43;;;;;;;4.75;0.95;;;8.10;67.40;;;;;;5046470;28;20120;-66
2021/01/21 12:22:09;;;;;;;3.17;0.77;;;8.00;68.30;;;;;;5038703;28;20450;-66
2021/01/21 12:24:34;;;;;;;6.45;1.00;;;8.10;68.20;;;;;;5044839;28;20025;-66
2021/01/21 12:27:00;;;;;;;5.65;1.10;;;7.80;68.30;;;;;;5040804;28;20133;-66
2021/01/21 12:29:26;;;;;;;5.78;1.10;;;7.60;68.10;;;;;;5026875;28;20021;-66
2021/01/21 12:31:51;;;;;;;4.10;1.05;;;7.50;68.10;;;;;;5027766;28;20077;-66
2021/01/21 12:34:17;;;;;;;4.55;0.90;;;7.60;68.20;;;;;;5031771;28;20033;-66
2021/01/21 12:36:42;;;;;;;5.57;0.85;;;7.50;69.20;;;;;;5044298;28;20037;-66
2021/01/21 12:39:08;;;;;;;6.57;0.98;;;7.80;69.70;;;;;;5045234;28;20029;-65
2021/01/21 12:41:34;;;;;;;4.28;1.05;;;7.70;68.90;;;;;;5043690;28;20028;-66
2021/01/21 12:43:59;;;;;;;8.45;1.30;;;7.70;68.80;;;;;;5027859;28;20025;-66
2021/01/21 12:46:28;;;;;;;5.45;1.40;;;7.60;69.60;;;;;;5042929;28;20112;-67
2021/01/21 12:48:54;;;;;;;7.45;1.25;;;7.60;69.80;;;;;;5046649;28;20044;-66
2021/01/21 12:51:20;;;;;;;3.35;1.00;;;7.80;70.10;;;;;;5063639;22;20132;-66
2021/01/21 12:53:46;;;;;;;2.72;0.90;;;7.70;69.70;;;;;;5065664;28;20597;-66
2021/01/21 12:56:11;;;;;;;4.10;1.20;;;7.80;70.90;;;;;;5038526;28;20116;-66
2021/01/21 12:58:37;;;;;;;5.63;1.33;;;8.00;69.00;;;;;;5058743;28;20077;-66
2021/01/21 13:01:02;;;;;;;6.82;1.40;;;8.00;69.40;;;;;;5057972;28;20033;-66
2021/01/21 13:03:28;;;;;;;3.05;0.88;;;7.90;70.10;;;;;;5060661;28;20047;-65
2021/01/21 13:05:54;;;;;;;2.55;0.85;;;7.80;69.10;;;;;;5064699;28;20029;-65
2021/01/21 13:08:19;;;;;;;6.03;1.40;;;7.90;69.10;;;;;;5062439;28;20516;-66